Time;durP1;ratioP1;P1;durP2;ratioP2;P2;SDS_P1;SDS_P2;PMS_P1;PMS_P2;Temp;Humidity;BMP_temperature;BMP_pressure;BME280_temperature;BME280_humidity;BME280_pressure;Samples;Min_cycle;Max_cycle;Signal;HPM_P1;HPM_P2
2021/09/15 00:01:08;;;;;;;6.45;4.38;;;16.60;99.90;;;;;;5011543;28;20471;-79
2021/09/15 00:03:36;;;;;;;5.28;4.72;;;16.60;99.90;;;;;;4991376;28;20034;-78
2021/09/15 00:06:06;;;;;;;6.00;4.65;;;16.60;99.90;;;;;;5007077;28;20056;-78
2021/09/15 00:08:32;;;;;;;8.73;4.88;;;16.60;99.90;;;;;;5002743;28;20037;-79
2021/09/15 00:10:58;;;;;;;7.15;5.15;;;16.60;99.90;;;;;;5008447;28;20120;-78
2021/09/15 00:13:24;;;;;;;6.00;5.18;;;16.70;99.90;;;;;;5009763;28;20029;-78
2021/09/15 00:15:50;;;;;;;6.85;4.43;;;16.70;99.90;;;;;;5018536;28;20033;-79
2021/09/15 00:18:16;;;;;;;7.57;6.30;;;16.70;99.90;;;;;;4978686;28;20061;-79
2021/09/15 00:20:41;;;;;;;7.85;5.78;;;16.70;99.90;;;;;;5011511;28;20041;-78
2021/09/15 00:23:07;;;;;;;7.63;5.40;;;16.80;99.90;;;;;;4997968;28;20045;-78
2021/09/15 00:25:33;;;;;;;5.93;4.88;;;16.80;99.90;;;;;;5012004;28;20088;-80
2021/09/15 00:27:59;;;;;;;6.47;5.07;;;16.80;99.90;;;;;;5010130;28;20034;-78
2021/09/15 00:30:24;;;;;;;5.72;4.93;;;16.80;99.90;;;;;;4994168;28;20034;-79
2021/09/15 00:32:50;;;;;;;5.57;4.72;;;16.90;99.90;;;;;;4991393;28;20152;-79
2021/09/15 00:35:16;;;;;;;5.70;4.13;;;17.00;99.90;;;;;;5001064;28;20096;-79
2021/09/15 00:37:42;;;;;;;5.90;4.88;;;17.00;99.90;;;;;;4994547;28;20025;-79
2021/09/15 00:40:09;;;;;;;6.80;5.13;;;17.00;99.90;;;;;;5006150;28;20037;-79
2021/09/15 00:42:35;;;;;;;5.13;4.15;;;17.10;99.90;;;;;;5009450;28;20038;-79
2021/09/15 00:45:01;;;;;;;5.53;4.93;;;17.10;99.90;;;;;;4981792;28;20038;-79
2021/09/15 00:47:27;;;;;;;5.13;4.60;;;17.10;99.90;;;;;;5002159;28;20084;-78
2021/09/15 00:49:53;;;;;;;6.78;5.30;;;17.20;99.90;;;;;;5017888;28;20081;-79
2021/09/15 00:52:20;;;;;;;5.70;4.45;;;17.20;99.90;;;;;;5012943;28;20034;-79
2021/09/15 00:54:47;;;;;;;5.50;4.57;;;17.20;99.90;;;;;;5009163;28;20084;-79
2021/09/15 00:57:14;;;;;;;6.00;4.57;;;17.20;99.90;;;;;;4975121;28;20173;-79
2021/09/15 00:59:41;;;;;;;4.78;4.30;;;17.20;99.90;;;;;;5008623;28;20040;-79
2021/09/15 01:02:08;;;;;;;5.60;5.00;;;17.20;99.90;;;;;;4987248;28;20504;-79
2021/09/15 01:04:35;;;;;;;5.55;4.82;;;17.20;99.90;;;;;;5007082;28;20500;-79
2021/09/15 01:07:02;;;;;;;4.55;4.05;;;17.30;99.90;;;;;;4997409;28;20026;-79
2021/09/15 01:09:31;;;;;;;4.70;4.15;;;17.30;99.90;;;;;;4983721;28;20182;-79
2021/09/15 01:11:59;;;;;;;5.53;4.25;;;17.30;99.90;;;;;;4988161;28;20491;-79
2021/09/15 01:14:35;;;;;;;7.20;4.60;;;17.30;99.90;;;;;;5005094;28;20053;-79
2021/09/15 01:17:19;;;;;;;7.07;4.72;;;17.30;99.90;;;;;;4989402;28;20053;-79
2021/09/15 01:19:45;;;;;;;4.70;4.20;;;17.30;99.90;;;;;;5010437;28;20034;-79
2021/09/15 01:22:43;;;;;;;4.63;3.88;;;17.30;99.90;;;;;;4967097;28;20034;-79
2021/09/15 01:25:35;;;;;;;4.40;4.00;;;17.30;99.90;;;;;;5006641;28;20091;-79
2021/09/15 01:28:22;;;;;;;4.75;4.10;;;17.30;99.90;;;;;;5000516;28;20049;-79
2021/09/15 01:30:57;;;;;;;5.47;4.63;;;17.40;99.90;;;;;;5003631;28;20524;-79
2021/09/15 01:33:25;;;;;;;6.13;4.80;;;17.40;99.90;;;;;;5004037;28;20041;-79
2021/09/15 01:35:51;;;;;;;4.70;4.22;;;17.40;99.90;;;;;;5013865;28;20038;-79
2021/09/15 01:38:17;;;;;;;7.25;4.82;;;17.40;99.90;;;;;;5020164;28;20038;-79
2021/09/15 01:40:45;;;;;;;4.18;3.70;;;17.40;99.90;;;;;;5003724;28;20400;-79
2021/09/15 01:43:10;;;;;;;5.38;4.38;;;17.40;99.90;;;;;;4996301;28;20034;-79
2021/09/15 01:45:37;;;;;;;6.32;4.90;;;17.40;99.90;;;;;;5000742;28;20033;-79
2021/09/15 01:48:09;;;;;;;4.80;4.32;;;17.30;99.90;;;;;;5028475;28;20312;-79
2021/09/15 01:50:35;;;;;;;5.85;4.40;;;17.30;99.90;;;;;;5008135;28;20172;-79
2021/09/15 01:53:01;;;;;;;6.60;4.20;;;17.30;99.90;;;;;;5006391;28;20552;-79
2021/09/15 01:55:30;;;;;;;5.40;4.28;;;17.30;99.90;;;;;;5003826;28;20036;-79
2021/09/15 01:58:19;;;;;;;6.05;4.70;;;17.30;99.90;;;;;;5001188;28;20081;-79
2021/09/15 02:00:59;;;;;;;5.47;4.03;;;17.20;99.90;;;;;;5007595;28;20064;-79
2021/09/15 02:03:54;;;;;;;5.47;3.92;;;17.20;99.90;;;;;;5007742;28;20049;-79
2021/09/15 02:06:48;;;;;;;5.45;4.38;;;17.20;99.90;;;;;;4998813;28;20125;-79
2021/09/15 02:09:40;;;;;;;4.65;4.25;;;17.20;99.90;;;;;;5004629;28;20061;-79
2021/09/15 02:12:16;;;;;;;4.40;4.00;;;17.20;99.90;;;;;;5004978;28;20044;-79
2021/09/15 02:14:43;;;;;;;5.32;4.78;;;17.10;99.90;;;;;;4998723;28;20021;-79
2021/09/15 02:17:09;;;;;;;5.07;4.47;;;17.10;99.90;;;;;;4987503;28;20080;-79
2021/09/15 02:19:36;;;;;;;4.40;4.00;;;17.10;99.90;;;;;;5021437;28;20030;-79
2021/09/15 02:22:14;;;;;;;4.68;3.90;;;17.10;99.90;;;;;;5005750;28;20034;-79
2021/09/15 02:25:07;;;;;;;7.05;4.95;;;17.00;99.90;;;;;;4989151;28;20052;-79
2021/09/15 02:27:51;;;;;;;5.40;4.90;;;17.00;99.90;;;;;;4996718;28;20579;-79
2021/09/15 02:30:25;;;;;;;5.45;4.53;;;17.10;99.90;;;;;;4982708;28;20066;-79
2021/09/15 02:32:57;;;;;;;5.22;4.20;;;17.00;99.90;;;;;;5014437;28;20061;-79
2021/09/15 02:35:47;;;;;;;4.38;3.97;;;17.00;99.90;;;;;;4983634;28;20514;-79
2021/09/15 02:38:26;;;;;;;9.70;4.65;;;17.00;99.90;;;;;;5004231;28;20029;-79
2021/09/15 02:41:24;;;;;;;6.07;4.90;;;17.00;99.90;;;;;;4970367;28;20145;-79
2021/09/15 02:44:04;;;;;;;7.07;4.57;;;17.00;99.90;;;;;;4996770;28;20034;-79
2021/09/15 02:46:46;;;;;;;4.13;3.72;;;16.90;99.90;;;;;;5012033;28;20033;-79
2021/09/15 02:49:27;;;;;;;8.13;4.40;;;16.90;99.90;;;;;;4993830;28;20035;-79
2021/09/15 02:52:22;;;;;;;4.60;4.13;;;16.80;99.90;;;;;;4963388;28;20101;-79
2021/09/15 02:55:26;;;;;;;6.32;4.35;;;16.80;99.90;;;;;;4932336;29;20036;-79
2021/09/15 02:57:57;;;;;;;6.32;4.50;;;16.80;99.90;;;;;;4932583;29;20040;-79
2021/09/15 03:00:36;;;;;;;4.93;4.28;;;16.70;99.90;;;;;;4972746;28;20184;-79
2021/09/15 03:03:16;;;;;;;5.72;4.65;;;16.70;99.90;;;;;;4990881;28;20094;-78
2021/09/15 03:05:55;;;;;;;6.40;4.40;;;16.70;99.90;;;;;;4998282;28;20038;-79
2021/09/15 03:08:47;;;;;;;5.97;4.72;;;16.70;99.90;;;;;;4994199;28;20050;-79
2021/09/15 03:11:12;;;;;;;6.20;4.20;;;16.70;99.90;;;;;;5003479;28;20439;-79
2021/09/15 03:13:38;;;;;;;6.13;4.53;;;16.70;99.90;;;;;;5000271;28;20034;-79
2021/09/15 03:16:05;;;;;;;5.18;4.30;;;16.60;99.90;;;;;;5000710;28;20034;-79
2021/09/15 03:18:31;;;;;;;6.10;4.78;;;16.70;99.90;;;;;;5017849;28;20488;-79
2021/09/15 03:20:57;;;;;;;5.38;4.53;;;16.70;99.90;;;;;;5007423;28;20072;-79
2021/09/15 03:23:23;;;;;;;4.78;4.15;;;16.70;99.90;;;;;;5017789;28;20034;-79
2021/09/15 03:25:49;;;;;;;6.63;5.00;;;16.70;99.90;;;;;;5011615;28;20034;-79
2021/09/15 03:28:15;;;;;;;4.93;4.40;;;16.60;99.90;;;;;;5006096;28;20036;-79
2021/09/15 03:30:40;;;;;;;5.53;4.70;;;16.70;99.90;;;;;;5007973;28;20033;-79
2021/09/15 03:33:07;;;;;;;6.80;4.55;;;16.60;99.90;;;;;;4959923;28;20551;-79
2021/09/15 03:35:32;;;;;;;5.75;4.97;;;16.60;99.90;;;;;;5008975;28;20026;-79
2021/09/15 03:37:59;;;;;;;6.78;5.05;;;16.60;99.90;;;;;;4997890;28;20099;-79
2021/09/15 03:40:25;;;;;;;5.40;4.47;;;16.60;99.90;;;;;;4989687;28;20412;-79
2021/09/15 03:42:51;;;;;;;6.63;4.28;;;16.60;99.90;;;;;;4999876;28;20058;-79
2021/09/15 03:45:17;;;;;;;6.90;4.35;;;16.60;99.90;;;;;;5019860;28;20500;-79
2021/09/15 03:47:43;;;;;;;5.80;4.97;;;16.70;99.90;;;;;;5004325;28;20076;-79
2021/09/15 03:50:09;;;;;;;7.05;4.85;;;16.70;99.90;;;;;;5007491;28;20042;-79
2021/09/15 03:52:35;;;;;;;8.70;5.35;;;16.70;99.90;;;;;;5001148;28;20031;-79
2021/09/15 03:55:01;;;;;;;6.60;4.30;;;16.70;99.90;;;;;;5011242;28;20045;-79
2021/09/15 03:57:27;;;;;;;4.13;3.72;;;16.80;99.90;;;;;;5013097;28;20154;-79
2021/09/15 03:59:53;;;;;;;5.68;4.53;;;16.70;99.90;;;;;;5023496;28;20076;-79
2021/09/15 04:02:19;;;;;;;5.05;4.30;;;16.70;99.90;;;;;;5001373;28;20736;-79
2021/09/15 04:04:45;;;;;;;5.43;4.75;;;16.70;99.90;;;;;;5004880;28;20034;-79
2021/09/15 04:07:11;;;;;;;6.38;4.75;;;16.70;99.90;;;;;;4981417;28;20042;-79
2021/09/15 04:09:37;;;;;;;5.30;4.28;;;16.70;99.90;;;;;;5001168;28;20100;-79
2021/09/15 04:12:04;;;;;;;6.95;5.15;;;16.70;99.90;;;;;;5008593;28;20535;-79
2021/09/15 04:14:29;;;;;;;9.50;5.03;;;16.70;99.90;;;;;;4997116;28;20160;-78
2021/09/15 04:16:59;;;;;;;6.40;4.75;;;16.70;99.90;;;;;;4964360;28;20065;-79
2021/09/15 04:19:24;;;;;;;6.53;5.10;;;16.70;99.90;;;;;;5004603;28;20129;-79
2021/09/15 04:21:50;;;;;;;5.65;4.78;;;16.60;99.90;;;;;;5000557;28;20175;-79
2021/09/15 04:32:32;;;;;;;5.93;4.80;;;16.70;99.90;;;;;;5000922;28;20041;-78
2021/09/15 04:34:57;;;;;;;7.07;4.85;;;16.70;99.90;;;;;;4989003;28;20408;-79
2021/09/15 04:37:23;;;;;;;4.80;4.30;;;16.70;99.90;;;;;;5011764;28;20599;-79
2021/09/15 04:39:49;;;;;;;5.78;5.18;;;16.70;99.90;;;;;;5008817;28;20404;-79
2021/09/15 04:42:15;;;;;;;6.07;4.93;;;16.70;99.90;;;;;;5008903;28;20045;-79
2021/09/15 04:44:41;;;;;;;7.13;4.93;;;16.80;99.90;;;;;;5009650;28;20038;-79
2021/09/15 04:47:07;;;;;;;5.97;4.78;;;16.80;99.90;;;;;;4997792;28;20026;-79
2021/09/15 04:49:33;;;;;;;7.57;4.63;;;16.90;99.90;;;;;;5003554;28;20026;-79
2021/09/15 04:51:59;;;;;;;5.72;4.68;;;16.90;99.90;;;;;;4994789;28;20570;-79
2021/09/15 04:54:26;;;;;;;6.70;5.22;;;16.90;99.90;;;;;;5000254;28;20030;-79
2021/09/15 04:56:54;;;;;;;9.57;5.60;;;16.90;99.90;;;;;;4995512;28;20022;-79
2021/09/15 04:59:23;;;;;;;6.05;5.45;;;16.90;99.90;;;;;;4997398;28;20034;-79
2021/09/15 05:01:49;;;;;;;7.85;5.72;;;16.90;99.90;;;;;;4993532;28;20038;-78
2021/09/15 05:04:15;;;;;;;7.30;5.55;;;16.90;99.90;;;;;;4995916;28;20029;-79
2021/09/15 05:06:44;;;;;;;6.18;4.95;;;16.90;99.90;;;;;;4993027;28;20100;-80
2021/09/15 05:09:10;;;;;;;7.00;5.72;;;16.90;99.90;;;;;;4993622;28;20038;-79
2021/09/15 05:11:41;;;;;;;6.85;5.28;;;16.90;99.90;;;;;;4991118;28;20126;-79
2021/09/15 05:14:07;;;;;;;8.93;5.63;;;16.90;99.90;;;;;;4990938;28;20038;-79
2021/09/15 05:16:33;;;;;;;6.47;5.30;;;16.80;99.90;;;;;;5002571;28;20030;-79
2021/09/15 05:18:58;;;;;;;6.32;5.57;;;16.80;99.90;;;;;;4995457;28;20030;-79
2021/09/15 05:21:24;;;;;;;6.05;5.20;;;16.90;99.90;;;;;;5010133;28;20092;-79
2021/09/15 05:23:53;;;;;;;8.15;5.93;;;16.90;99.90;;;;;;4995621;28;20045;-79
2021/09/15 05:26:19;;;;;;;6.55;5.70;;;17.00;99.90;;;;;;5002387;28;20038;-79
2021/09/15 05:28:44;;;;;;;9.93;6.25;;;17.00;99.90;;;;;;4990694;28;20484;-79
2021/09/15 05:31:11;;;;;;;8.35;6.18;;;17.00;99.90;;;;;;5000046;28;20568;-79
2021/09/15 05:33:40;;;;;;;7.35;6.15;;;17.10;99.90;;;;;;4989586;28;20551;-79
2021/09/15 05:36:07;;;;;;;9.77;5.32;;;17.10;99.90;;;;;;4995040;28;20039;-79
2021/09/15 05:38:33;;;;;;;6.55;5.30;;;17.10;99.90;;;;;;5008054;28;20499;-79
2021/09/15 05:41:12;;;;;;;6.85;5.22;;;17.10;99.90;;;;;;4992719;28;20037;-79
2021/09/15 05:43:38;;;;;;;7.45;5.18;;;17.10;99.90;;;;;;4994537;28;20030;-78
2021/09/15 05:46:06;;;;;;;6.60;4.97;;;17.10;99.90;;;;;;5010481;28;20056;-79
2021/09/15 05:48:32;;;;;;;7.97;5.40;;;17.10;99.90;;;;;;4996721;28;20524;-79
2021/09/15 05:50:58;;;;;;;5.85;4.95;;;17.10;99.90;;;;;;5008332;28;20619;-79
2021/09/15 05:53:24;;;;;;;6.93;5.68;;;17.10;99.90;;;;;;5002629;28;20722;-79
2021/09/15 05:55:50;;;;;;;6.90;5.55;;;17.10;99.90;;;;;;5009707;28;20022;-79
2021/09/15 05:58:18;;;;;;;9.43;5.57;;;17.10;99.90;;;;;;4989781;28;20031;-79
2021/09/15 06:00:44;;;;;;;6.65;5.65;;;17.10;99.90;;;;;;5010599;28;20034;-79
2021/09/15 06:03:14;;;;;;;7.97;5.93;;;17.10;99.90;;;;;;4993491;28;20029;-79
2021/09/15 06:06:06;;;;;;;7.57;5.75;;;17.10;99.90;;;;;;5008124;28;20096;-79
2021/09/15 06:08:32;;;;;;;7.07;5.68;;;17.20;99.90;;;;;;5005064;28;20030;-79
2021/09/15 06:10:57;;;;;;;7.38;5.68;;;17.20;99.90;;;;;;4992825;28;20042;-79
2021/09/15 06:13:23;;;;;;;6.50;5.63;;;17.20;99.90;;;;;;5018124;28;20026;-79
2021/09/15 06:15:50;;;;;;;7.75;5.65;;;17.20;99.90;;;;;;4998319;28;20041;-79
2021/09/15 06:18:17;;;;;;;6.90;5.40;;;17.20;99.90;;;;;;5008044;28;20116;-79
2021/09/15 06:21:06;;;;;;;6.18;5.22;;;17.20;99.90;;;;;;5009027;28;20033;-79
2021/09/15 06:23:52;;;;;;;7.00;5.18;;;17.20;99.90;;;;;;5001852;28;20061;-79
2021/09/15 06:26:23;;;;;;;6.10;5.03;;;17.30;99.90;;;;;;4991315;28;20041;-79
2021/09/15 06:28:50;;;;;;;7.35;5.28;;;17.30;99.90;;;;;;4983726;28;20037;-79
2021/09/15 06:31:15;;;;;;;7.00;5.68;;;17.30;99.90;;;;;;4996099;28;20673;-79
2021/09/15 06:33:41;;;;;;;7.82;5.32;;;17.30;99.90;;;;;;4992471;28;20026;-79
2021/09/15 06:36:07;;;;;;;6.50;5.80;;;17.40;99.90;;;;;;4991730;28;20038;-78
2021/09/15 06:38:33;;;;;;;6.60;5.78;;;17.30;99.90;;;;;;5008700;28;20037;-78
2021/09/15 06:40:59;;;;;;;6.53;5.82;;;17.30;99.90;;;;;;5001769;28;20045;-78
2021/09/15 06:43:26;;;;;;;7.45;5.47;;;17.40;99.90;;;;;;5008048;28;20034;-78
2021/09/15 06:45:52;;;;;;;6.32;5.32;;;17.50;99.90;;;;;;5007384;28;20038;-78
2021/09/15 06:48:19;;;;;;;7.15;6.07;;;17.40;99.90;;;;;;5013244;28;20034;-78
2021/09/15 06:50:45;;;;;;;6.95;5.78;;;17.50;99.90;;;;;;5004878;28;20031;-78
2021/09/15 06:53:10;;;;;;;6.53;5.22;;;17.50;99.90;;;;;;5009538;28;20554;-78
2021/09/15 06:55:37;;;;;;;6.55;5.55;;;17.60;99.90;;;;;;5007164;28;20036;-78
2021/09/15 06:58:03;;;;;;;7.13;5.60;;;17.60;99.90;;;;;;5011729;28;20030;-77
2021/09/15 07:00:29;;;;;;;8.68;5.97;;;17.70;99.90;;;;;;5011762;28;20377;-79
2021/09/15 07:02:55;;;;;;;8.05;5.75;;;17.70;99.90;;;;;;5010900;28;20097;-78
2021/09/15 07:05:21;;;;;;;7.15;5.18;;;17.70;99.90;;;;;;5012637;28;20061;-80
2021/09/15 07:07:47;;;;;;;7.80;6.25;;;17.80;99.90;;;;;;5010067;28;20053;-80
2021/09/15 07:10:12;;;;;;;7.40;5.70;;;17.90;99.90;;;;;;5010934;28;20034;-77
2021/09/15 07:12:38;;;;;;;8.18;6.57;;;17.90;99.90;;;;;;5010975;28;20034;-78
2021/09/15 07:15:08;;;;;;;7.45;6.18;;;17.90;99.90;;;;;;5012815;28;20057;-78
2021/09/15 07:17:34;;;;;;;6.97;5.82;;;18.00;99.90;;;;;;5014296;28;20062;-78
2021/09/15 07:20:00;;;;;;;7.50;6.07;;;18.00;99.90;;;;;;5014996;28;20034;-78
2021/09/15 07:22:26;;;;;;;7.03;5.78;;;17.90;99.90;;;;;;5014123;28;20033;-78
2021/09/15 07:24:52;;;;;;;6.85;5.60;;;17.90;99.90;;;;;;5011396;28;20399;-78
2021/09/15 07:27:19;;;;;;;7.78;6.30;;;17.90;99.90;;;;;;5012820;28;20413;-79
2021/09/15 07:29:44;;;;;;;9.32;5.38;;;17.90;99.90;;;;;;5010948;28;20041;-78
2021/09/15 07:32:10;;;;;;;7.35;6.07;;;17.90;99.90;;;;;;5016206;28;20038;-78
2021/09/15 07:34:37;;;;;;;7.03;5.93;;;17.90;99.90;;;;;;5005378;28;20038;-80
2021/09/15 07:37:03;;;;;;;8.88;5.95;;;17.90;99.90;;;;;;5008815;28;20388;-77
2021/09/15 07:39:29;;;;;;;8.10;5.95;;;18.00;99.90;;;;;;5011311;28;20045;-77
2021/09/15 07:41:54;;;;;;;8.25;6.78;;;18.10;99.90;;;;;;4986111;28;20034;-77
2021/09/15 07:44:20;;;;;;;9.80;6.20;;;18.10;99.90;;;;;;4973757;28;20037;-78
2021/09/15 07:46:46;;;;;;;9.15;6.70;;;18.00;99.90;;;;;;5009033;28;20029;-78
2021/09/15 07:49:11;;;;;;;11.48;6.95;;;18.00;99.90;;;;;;5012114;28;20030;-79
2021/09/15 07:51:37;;;;;;;8.55;6.88;;;18.10;99.90;;;;;;5001386;28;20205;-79
2021/09/15 07:54:03;;;;;;;8.90;6.70;;;18.00;99.90;;;;;;5008185;28;20472;-78
2021/09/15 07:56:29;;;;;;;8.48;6.57;;;18.10;99.90;;;;;;4977354;28;20026;-78
2021/09/15 07:58:55;;;;;;;8.48;6.13;;;18.10;99.90;;;;;;5005394;28;20057;-77
2021/09/15 08:01:24;;;;;;;8.93;7.47;;;18.30;99.90;;;;;;5009713;28;20026;-78
2021/09/15 08:03:51;;;;;;;9.30;6.95;;;18.30;99.90;;;;;;5005823;28;20034;-79
2021/09/15 08:06:17;;;;;;;10.55;6.60;;;18.30;99.90;;;;;;4980031;28;20030;-77
2021/09/15 08:08:42;;;;;;;9.95;7.03;;;18.30;99.90;;;;;;4986596;28;20385;-78
2021/09/15 08:11:08;;;;;;;8.55;6.88;;;18.40;99.90;;;;;;5012171;28;20033;-77
2021/09/15 08:13:34;;;;;;;9.93;7.55;;;18.50;99.90;;;;;;5009206;28;20476;-78
2021/09/15 08:15:59;;;;;;;7.18;6.47;;;18.50;99.90;;;;;;5008129;28;20121;-77
2021/09/15 08:18:25;;;;;;;8.88;6.95;;;18.50;99.90;;;;;;5008938;28;20087;-77
2021/09/15 08:20:51;;;;;;;9.43;7.15;;;18.60;99.90;;;;;;5008489;28;20633;-78
2021/09/15 08:23:18;;;;;;;9.27;7.18;;;18.60;99.90;;;;;;4988182;28;20066;-78
2021/09/15 08:25:44;;;;;;;8.60;6.70;;;18.60;99.90;;;;;;5003617;28;20597;-78
2021/09/15 08:28:10;;;;;;;7.15;6.07;;;18.70;99.90;;;;;;5001227;28;20033;-78
2021/09/15 08:30:36;;;;;;;8.40;7.20;;;18.70;99.90;;;;;;5011723;28;20022;-78
2021/09/15 08:33:02;;;;;;;8.55;7.07;;;18.60;99.90;;;;;;5020709;28;20125;-78
2021/09/15 08:35:28;;;;;;;8.32;6.60;;;18.70;99.90;;;;;;5008612;28;20087;-78
2021/09/15 08:37:54;;;;;;;6.97;6.13;;;18.70;99.90;;;;;;4986559;28;20132;-77
2021/09/15 08:40:20;;;;;;;8.20;6.63;;;18.70;99.90;;;;;;5010395;28;20049;-78
2021/09/15 08:42:46;;;;;;;8.75;6.63;;;18.70;99.90;;;;;;5002918;28;20030;-78
2021/09/15 08:45:13;;;;;;;9.93;6.65;;;18.70;99.90;;;;;;5004847;28;20038;-77
2021/09/15 08:47:47;;;;;;;7.45;6.30;;;18.70;99.90;;;;;;5010654;28;20061;-78
2021/09/15 08:50:15;;;;;;;10.15;7.10;;;18.80;99.90;;;;;;5009296;28;20030;-78
2021/09/15 08:52:41;;;;;;;9.73;7.18;;;18.90;99.90;;;;;;4992595;28;20031;-77
2021/09/15 08:55:08;;;;;;;9.00;6.80;;;19.00;99.90;;;;;;4969828;28;20068;-78
2021/09/15 08:57:34;;;;;;;9.32;6.80;;;19.20;99.90;;;;;;4986795;28;20039;-78
2021/09/15 09:00:00;;;;;;;8.25;6.85;;;19.30;99.90;;;;;;5012454;28;20038;-77
2021/09/15 09:02:33;;;;;;;8.30;6.22;;;19.50;99.90;;;;;;5004269;28;20443;-77
2021/09/15 09:05:02;;;;;;;7.20;6.03;;;19.70;99.90;;;;;;5001667;28;20026;-77
2021/09/15 09:07:33;;;;;;;8.88;7.05;;;19.90;99.90;;;;;;4993311;28;20528;-78
2021/09/15 09:10:03;;;;;;;8.13;5.90;;;20.10;99.90;;;;;;5007409;28;20577;-78
2021/09/15 09:12:31;;;;;;;6.63;5.95;;;20.20;99.90;;;;;;4988223;28;20021;-78
2021/09/15 09:15:16;;;;;;;9.15;6.90;;;20.30;99.90;;;;;;4984341;28;20038;-78
2021/09/15 09:17:43;;;;;;;9.13;6.32;;;20.40;99.90;;;;;;5009149;28;20068;-78
2021/09/15 09:20:15;;;;;;;8.25;6.68;;;20.60;99.90;;;;;;4993200;28;20033;-77
2021/09/15 09:22:57;;;;;;;7.10;6.18;;;20.70;99.90;;;;;;5005465;28;20014;-78
2021/09/15 09:25:23;;;;;;;11.40;6.47;;;20.80;99.90;;;;;;5009577;28;20042;-79
2021/09/15 09:27:50;;;;;;;6.80;6.10;;;20.90;99.90;;;;;;5011085;28;20032;-77
2021/09/15 09:30:39;;;;;;;8.60;6.22;;;21.00;99.90;;;;;;5010534;28;20030;-77
2021/09/15 09:33:07;;;;;;;8.57;6.60;;;21.10;99.90;;;;;;5001836;28;20052;-77
2021/09/15 09:35:54;;;;;;;8.45;6.72;;;21.20;99.90;;;;;;5004279;28;20413;-77
2021/09/15 09:38:25;;;;;;;9.00;6.43;;;21.30;99.90;;;;;;5011072;28;20096;-78
2021/09/15 09:41:02;;;;;;;7.88;6.50;;;21.20;99.90;;;;;;5011066;28;20122;-78
2021/09/15 09:43:30;;;;;;;7.93;6.63;;;21.20;99.90;;;;;;5003360;28;20033;-78
2021/09/15 09:45:56;;;;;;;6.68;5.95;;;21.30;99.90;;;;;;5014475;28;20056;-78
2021/09/15 09:48:41;;;;;;;9.23;6.40;;;21.30;99.90;;;;;;5011014;28;20611;-78
2021/09/15 09:51:24;;;;;;;11.35;6.38;;;21.20;99.90;;;;;;4983992;28;20057;-77
2021/09/15 09:53:51;;;;;;;8.02;5.68;;;21.20;99.90;;;;;;5006979;28;20025;-79
2021/09/15 09:56:17;;;;;;;10.73;6.72;;;21.20;99.90;;;;;;5020458;28;20038;-77
2021/09/15 09:58:45;;;;;;;9.30;6.18;;;21.20;99.90;;;;;;5015547;28;20026;-77
2021/09/15 10:01:16;;;;;;;7.22;5.75;;;21.20;99.90;;;;;;5008130;28;20034;-77
2021/09/15 10:03:44;;;;;;;6.93;5.63;;;21.20;99.90;;;;;;5008755;28;20041;-77
2021/09/15 10:06:10;;;;;;;7.13;5.65;;;21.20;99.90;;;;;;5008918;28;20033;-78
2021/09/15 10:08:37;;;;;;;6.43;5.43;;;21.30;99.90;;;;;;5010418;28;20079;-77
2021/09/15 10:11:03;;;;;;;6.85;5.97;;;21.30;99.90;;;;;;4996307;28;20034;-78
2021/09/15 10:13:28;;;;;;;6.35;5.68;;;21.40;99.90;;;;;;5007731;28;20033;-78
2021/09/15 10:16:03;;;;;;;5.93;5.25;;;21.40;99.90;;;;;;5000598;28;20124;-78
2021/09/15 10:18:28;;;;;;;6.93;5.50;;;21.30;99.90;;;;;;5009205;28;20160;-78
2021/09/15 10:20:57;;;;;;;7.93;6.00;;;21.40;99.90;;;;;;5013175;28;20638;-78
2021/09/15 10:23:40;;;;;;;6.32;5.72;;;21.30;99.90;;;;;;4998359;28;20084;-78
2021/09/15 10:26:36;;;;;;;7.15;6.10;;;21.30;99.90;;;;;;5018860;28;20034;-78
2021/09/15 10:29:27;;;;;;;8.68;6.25;;;21.20;99.90;;;;;;4998994;28;20035;-78
2021/09/15 10:32:00;;;;;;;5.88;5.28;;;21.20;99.90;;;;;;5014788;28;20041;-78
2021/09/15 10:34:38;;;;;;;6.45;5.18;;;21.10;99.90;;;;;;5003179;28;20027;-78
2021/09/15 10:37:23;;;;;;;6.60;5.22;;;21.10;99.90;;;;;;5011477;28;20026;-78
2021/09/15 10:39:52;;;;;;;;;;;21.00;99.90;;;;;;4979964;28;20038;-77
2021/09/15 10:45:10;;;;;;;;;;;21.10;99.90;;;;;;5067205;28;20505;-77
2021/09/15 10:47:43;;;;;;;8.73;5.72;;;21.10;99.90;;;;;;5065936;28;19950;-79
2021/09/15 10:50:12;;;;;;;7.82;5.80;;;21.10;99.90;;;;;;5065643;28;20037;-77
2021/09/15 10:52:39;;;;;;;6.45;4.75;;;21.20;99.90;;;;;;5060562;28;20112;-77
2021/09/15 10:55:19;;;;;;;6.43;4.78;;;21.20;99.90;;;;;;5060860;28;20104;-77
2021/09/15 10:57:46;;;;;;;9.68;4.65;;;21.30;99.90;;;;;;5062663;28;20026;-78
2021/09/15 11:00:18;;;;;;;6.03;4.30;;;21.30;99.90;;;;;;5065876;28;20053;-78
2021/09/15 11:02:48;;;;;;;6.03;4.60;;;21.40;99.90;;;;;;5057591;28;20136;-78
2021/09/15 11:05:26;;;;;;;7.05;5.32;;;21.30;99.90;;;;;;5064951;28;20078;-77
2021/09/15 11:07:51;;;;;;;7.88;4.32;;;21.30;99.90;;;;;;5061167;28;20031;-78
2021/09/15 11:10:35;;;;;;;5.68;4.20;;;21.30;99.90;;;;;;5057322;28;20032;-77
2021/09/15 11:13:03;;;;;;;4.78;4.05;;;21.30;99.90;;;;;;5062865;28;20028;-76
2021/09/15 11:15:38;;;;;;;6.28;4.18;;;21.20;99.90;;;;;;5057799;28;20395;-77
2021/09/15 11:18:05;;;;;;;3.67;3.17;;;21.10;99.90;;;;;;5057993;28;20033;-77
2021/09/15 11:20:33;;;;;;;5.60;4.00;;;21.00;99.90;;;;;;5065784;28;20094;-77
2021/09/15 11:23:04;;;;;;;5.20;3.60;;;20.90;99.90;;;;;;5065743;28;20124;-78
2021/09/15 11:25:30;;;;;;;4.40;3.50;;;20.80;99.90;;;;;;5077650;28;20029;-77
2021/09/15 11:28:11;;;;;;;6.43;3.97;;;20.60;99.90;;;;;;5067580;28;20028;-77
2021/09/15 11:30:42;;;;;;;5.25;3.45;;;20.50;99.90;;;;;;5051455;28;20033;-77
2021/09/15 11:33:09;;;;;;;6.32;3.28;;;20.40;99.90;;;;;;5065734;28;20043;-77
2021/09/15 11:35:38;;;;;;;5.10;3.35;;;20.30;99.90;;;;;;5058400;28;20120;-78
2021/09/15 11:38:06;;;;;;;3.55;3.15;;;20.20;99.90;;;;;;5063506;28;20033;-76
2021/09/15 11:40:33;;;;;;;4.80;3.45;;;20.20;99.90;;;;;;5065306;28;20441;-77
2021/09/15 11:43:06;;;;;;;4.18;3.30;;;20.10;99.90;;;;;;5043874;28;20064;-78
2021/09/15 11:45:34;;;;;;;5.07;3.67;;;20.10;99.90;;;;;;5056547;28;20025;-78
2021/09/15 11:48:00;;;;;;;6.90;4.32;;;20.20;99.90;;;;;;5054134;28;20041;-78
2021/09/15 11:50:33;;;;;;;4.57;3.92;;;20.30;99.90;;;;;;5045615;28;20055;-78
2021/09/15 11:53:06;;;;;;;6.63;3.42;;;20.30;99.90;;;;;;5050840;28;20057;-78
2021/09/15 11:55:36;;;;;;;6.00;3.40;;;20.30;99.90;;;;;;5050344;28;20131;-77
2021/09/15 11:58:03;;;;;;;5.20;3.70;;;20.40;99.90;;;;;;5046217;28;20116;-78
2021/09/15 12:00:30;;;;;;;5.47;4.38;;;20.60;99.90;;;;;;5046596;28;20079;-77
2021/09/15 12:03:02;;;;;;;5.55;4.22;;;20.70;99.90;;;;;;5046997;28;20058;-78
2021/09/15 12:05:28;;;;;;;8.32;3.55;;;20.70;99.90;;;;;;5033745;28;20037;-77
2021/09/15 12:07:55;;;;;;;7.53;3.42;;;20.80;99.90;;;;;;5045960;28;20108;-79
2021/09/15 12:10:21;;;;;;;6.85;2.88;;;20.90;99.90;;;;;;5036968;28;20026;-79
2021/09/15 12:12:49;;;;;;;6.47;3.13;;;20.90;99.90;;;;;;5038112;28;20403;-78
2021/09/15 12:15:14;;;;;;;4.75;3.10;;;21.00;99.90;;;;;;5035066;28;20029;-79
2021/09/15 12:17:40;;;;;;;3.30;2.75;;;21.10;99.90;;;;;;5030187;28;20041;-79
2021/09/15 12:20:07;;;;;;;4.07;3.13;;;21.20;99.90;;;;;;5024931;28;20166;-79
2021/09/15 12:22:33;;;;;;;3.33;2.95;;;21.30;99.90;;;;;;5045988;28;20102;-79
2021/09/15 12:25:00;;;;;;;6.30;3.20;;;21.30;99.90;;;;;;5044324;28;20534;-79
2021/09/15 12:27:27;;;;;;;2.75;2.40;;;21.30;99.90;;;;;;5044338;28;20383;-79
2021/09/15 12:30:10;;;;;;;4.68;2.70;;;21.40;99.90;;;;;;5032087;28;20066;-79
2021/09/15 12:32:40;;;;;;;2.83;2.33;;;21.40;99.90;;;;;;5041131;28;20115;-81
2021/09/15 12:35:19;;;;;;;3.75;2.50;;;21.40;99.90;;;;;;5041302;28;20029;-79
2021/09/15 12:37:44;;;;;;;4.85;2.70;;;21.30;99.90;;;;;;5045646;28;20463;-79
2021/09/15 12:40:19;;;;;;;2.13;1.92;;;21.30;99.90;;;;;;5048935;28;20041;-78
2021/09/15 12:42:58;;;;;;;4.20;2.30;;;21.30;99.90;;;;;;5037482;28;20030;-78
2021/09/15 12:45:24;;;;;;;2.80;2.30;;;21.30;99.90;;;;;;5044026;28;20029;-78
2021/09/15 12:47:50;;;;;;;3.38;2.20;;;21.30;99.90;;;;;;5050107;28;20037;-79
2021/09/15 12:50:18;;;;;;;4.10;2.88;;;21.30;99.90;;;;;;5038462;28;20041;-79
2021/09/15 12:52:46;;;;;;;4.72;2.83;;;21.20;99.90;;;;;;5037795;28;20395;-79
2021/09/15 12:55:23;;;;;;;3.58;2.30;;;21.10;99.90;;;;;;5037315;28;20395;-79
2021/09/15 12:58:25;;;;;;;3.15;2.17;;;21.10;99.90;;;;;;5032996;28;20025;-77
2021/09/15 13:00:51;;;;;;;7.05;2.40;;;21.10;99.90;;;;;;5047414;28;20049;-79
2021/09/15 13:03:17;;;;;;;4.32;2.45;;;21.10;99.90;;;;;;5037322;28;20042;-79
2021/09/15 13:05:45;;;;;;;4.75;2.30;;;21.10;99.90;;;;;;5048409;28;20430;-79
2021/09/15 13:08:21;;;;;;;3.10;2.25;;;21.10;99.90;;;;;;5046509;28;20029;-79
2021/09/15 13:10:48;;;;;;;4.47;2.30;;;21.10;99.90;;;;;;5043889;28;20091;-80
2021/09/15 13:13:22;;;;;;;3.17;2.40;;;21.00;99.90;;;;;;5045565;28;20029;-80